Time;durP1;ratioP1;P1;durP2;ratioP2;P2;SDS_P1;SDS_P2;PMS_P1;PMS_P2;Temp;Humidity;BMP_temperature;BMP_pressure;BME280_temperature;BME280_humidity;BME280_pressure;Samples;Min_cycle;Max_cycle;Signal;HPM_P1;HPM_P2
2022/06/20 00:01:29;;;;;;;3.00;2.80;;;;;;;16.58;81.42;99806.66;4957668;28;20215;-80
2022/06/20 00:03:56;;;;;;;2.70;2.50;;;;;;;16.61;80.16;99853.94;4957682;28;20211;-80
2022/06/20 00:06:24;;;;;;;3.17;2.87;;;;;;;16.45;79.79;99946.09;4957724;28;20234;-80
2022/06/20 00:08:51;;;;;;;4.23;3.60;;;;;;;15.81;81.71;99957.19;4958189;28;20235;-81
2022/06/20 00:11:21;;;;;;;3.80;2.60;;;;;;;16.01;81.01;99949.16;4966039;28;20236;-81
2022/06/20 00:13:53;;;;;;;3.33;3.03;;;;;;;15.94;82.09;99942.53;4968884;28;20234;-81
2022/06/20 00:16:20;;;;;;;3.60;3.30;;;;;;;15.63;84.63;99896.59;4968045;28;20206;-80
2022/06/20 00:18:48;;;;;;;3.80;3.50;;;;;;;15.41;86.61;99840.72;4969057;28;20233;-80
2022/06/20 00:21:17;;;;;;;4.97;3.43;;;;;;;15.32;87.08;99838.50;4978433;28;20222;-80
2022/06/20 00:23:44;;;;;;;4.47;4.00;;;;;;;15.21;87.83;99812.75;4978435;28;20191;-78
2022/06/20 00:26:10;;;;;;;5.33;4.20;;;;;;;15.47;87.53;99783.38;4970963;28;20277;-81
2022/06/20 00:28:37;;;;;;;4.13;3.73;;;;;;;15.44;86.67;99808.97;4959067;28;20301;-81
2022/06/20 00:31:06;;;;;;;3.77;3.47;;;;;;;15.55;86.17;99813.72;4958518;28;20625;-80
2022/06/20 00:33:32;;;;;;;3.47;3.10;;;;;;;15.73;85.63;99810.19;4958729;28;20215;-81
2022/06/20 00:36:00;;;;;;;4.20;3.47;;;;;;;15.52;85.36;99829.66;4958352;28;20258;-80
2022/06/20 00:38:27;;;;;;;3.90;3.50;;;;;;;15.48;85.57;99814.03;4958171;28;21063;-81
2022/06/20 00:40:56;;;;;;;4.33;3.20;;;;;;;15.54;85.09;99822.53;4958604;28;20214;-80
2022/06/20 00:43:27;;;;;;;6.63;3.20;;;;;;;15.73;84.82;99815.47;4958326;28;20264;-81
2022/06/20 00:45:56;;;;;;;4.60;3.70;;;;;;;15.83;84.96;99802.69;4958571;28;20216;-81
2022/06/20 00:48:30;;;;;;;3.43;3.03;;;;;;;15.93;84.78;99771.50;4958415;28;20216;-81
2022/06/20 00:51:02;;;;;;;4.27;3.40;;;;;;;16.03;84.21;99783.25;4959184;28;20222;-79
2022/06/20 00:53:32;;;;;;;3.20;2.90;;;;;;;16.10;83.81;99791.69;4961836;28;20266;-80
2022/06/20 00:56:03;;;;;;;3.40;3.13;;;;;;;16.15;83.34;99821.25;4962410;28;20205;-80
2022/06/20 00:58:34;;;;;;;3.00;2.70;;;;;;;16.18;82.51;99827.22;4961372;28;20227;-81
2022/06/20 01:01:01;;;;;;;2.83;2.63;;;;;;;16.23;81.99;99838.38;4961699;28;20219;-81
2022/06/20 01:03:34;;;;;;;4.13;3.50;;;;;;;16.26;82.61;99819.75;4961655;28;20206;-81
2022/06/20 01:06:05;;;;;;;4.13;3.50;;;;;;;16.25;82.34;99815.44;4961186;28;20280;-80
2022/06/20 01:08:38;;;;;;;3.97;2.77;;;;;;;16.28;81.97;99799.47;4960577;28;20711;-81
2022/06/20 01:11:07;;;;;;;3.43;2.93;;;;;;;16.33;81.92;99819.44;4962074;28;20224;-80
2022/06/20 01:13:34;;;;;;;3.37;3.03;;;;;;;16.33;82.18;99824.69;4961504;28;20207;-80
2022/06/20 01:16:09;;;;;;;3.93;2.90;;;;;;;16.29;82.02;99842.44;4962240;28;20269;-81
2022/06/20 01:18:37;;;;;;;3.57;3.20;;;;;;;16.30;81.09;99874.91;4961618;28;20259;-81
2022/06/20 01:21:13;;;;;;;3.40;3.10;;;;;;;16.37;80.40;99911.41;4961229;28;20673;-79
2022/06/20 01:23:50;;;;;;;3.10;2.90;;;;;;;16.35;80.25;99905.38;4961356;28;20296;-81
2022/06/20 01:26:31;;;;;;;3.87;3.43;;;;;;;16.37;78.40;99947.41;4961755;28;20282;-81
2022/06/20 01:29:04;;;;;;;3.00;2.70;;;;;;;16.36;77.84;99959.72;4960512;28;20304;-81
2022/06/20 01:31:36;;;;;;;4.23;3.43;;;;;;;16.34;77.86;99971.28;4960863;29;20226;-80
2022/06/20 01:34:03;;;;;;;3.73;3.33;;;;;;;16.36;78.19;99948.34;4960914;28;20611;-81
2022/06/20 01:39:19;;;;;;;3.90;3.60;;;;;;;16.31;78.35;99931.91;4960535;29;20345;-81
2022/06/20 01:44:42;;;;;;;3.13;2.80;;;;;;;16.28;78.67;99933.78;4945474;28;20594;-81
2022/06/20 01:47:08;;;;;;;3.80;3.50;;;;;;;16.22;79.27;99909.53;4960588;28;20752;-81
2022/06/20 01:49:36;;;;;;;4.20;3.80;;;;;;;16.20;79.46;99898.25;4959971;28;20651;-81
2022/06/20 01:52:07;;;;;;;4.23;3.60;;;;;;;16.22;78.86;99913.03;4959327;28;20243;-80
2022/06/20 01:54:38;;;;;;;3.53;3.33;;;;;;;16.23;78.07;99941.06;4960260;28;20207;-81
2022/06/20 01:57:08;;;;;;;4.33;3.93;;;;;;;16.19;78.97;99959.72;4959613;28;20274;-80
2022/06/20 01:59:39;;;;;;;4.77;4.47;;;;;;;16.04;79.45;99948.19;4959975;28;20231;-81
2022/06/20 02:02:07;;;;;;;4.00;3.70;;;;;;;16.15;79.80;99935.31;4959438;28;20215;-80
2022/06/20 02:04:36;;;;;;;5.70;3.53;;;;;;;16.18;79.92;99924.66;4960382;28;20215;-80
2022/06/20 02:07:05;;;;;;;5.33;4.03;;;;;;;16.20;80.46;99885.06;4959510;28;20241;-81
2022/06/20 02:09:32;;;;;;;3.73;3.50;;;;;;;16.25;80.31;99886.53;4959817;28;20259;-81
2022/06/20 02:12:00;;;;;;;4.30;4.00;;;;;;;16.23;80.26;99867.34;4960221;28;20688;-81
2022/06/20 02:14:38;;;;;;;5.07;3.37;;;;;;;16.26;80.71;99839.97;4960766;28;20243;-81
2022/06/20 02:17:10;;;;;;;9.00;4.80;;;;;;;16.22;82.15;99797.16;4959934;28;20242;-82
2022/06/20 02:19:41;;;;;;;4.47;4.10;;;;;;;16.20;82.31;99767.41;4960030;28;20596;-81
2022/06/20 02:22:10;;;;;;;4.53;4.13;;;;;;;16.20;81.09;99759.50;4960218;28;20196;-81
2022/06/20 02:24:42;;;;;;;7.53;4.33;;;;;;;16.16;81.63;99807.16;4960257;28;20554;-81
2022/06/20 02:27:28;;;;;;;6.13;4.57;;;;;;;16.02;81.18;99837.69;4959355;28;20236;-82
2022/06/20 02:29:54;;;;;;;4.53;4.13;;;;;;;16.01;82.17;99809.63;4959742;28;20235;-81
2022/06/20 02:32:25;;;;;;;5.93;4.60;;;;;;;16.04;81.98;99777.91;4959889;28;20211;-80
2022/06/20 02:34:52;;;;;;;4.83;4.43;;;;;;;16.04;82.15;99808.66;4959433;28;20203;-79
2022/06/20 02:37:23;;;;;;;5.43;4.93;;;;;;;15.74;82.35;99842.63;4958734;28;20208;-80
2022/06/20 02:39:52;;;;;;;5.00;4.60;;;;;;;15.78;83.64;99810.00;4959194;28;20273;-82
2022/06/20 02:42:29;;;;;;;4.30;3.90;;;;;;;15.88;83.12;99811.22;4959013;28;20208;-81
2022/06/20 02:44:57;;;;;;;5.20;4.80;;;;;;;15.91;83.17;99803.16;4959277;28;20215;-81
2022/06/20 02:47:27;;;;;;;4.80;4.40;;;;;;;15.95;82.68;99814.38;4958805;28;20237;-80
2022/06/20 02:49:57;;;;;;;5.30;4.90;;;;;;;15.88;82.60;99812.06;4958595;28;20286;-82
2022/06/20 02:52:31;;;;;;;5.53;5.00;;;;;;;15.81;82.45;99846.66;4958440;28;20629;-82
2022/06/20 02:54:58;;;;;;;6.70;5.30;;;;;;;15.53;84.41;99818.22;4960085;28;20205;-81
2022/06/20 02:57:32;;;;;;;7.07;6.37;;;;;;;15.16;86.26;99772.69;4959311;28;20206;-80
2022/06/20 03:00:02;;;;;;;8.07;6.83;;;;;;;14.92;87.71;99717.75;4959054;28;20225;-81
2022/06/20 03:02:36;;;;;;;6.67;6.07;;;;;;;15.11;87.44;99701.09;4959382;28;20213;-81
2022/06/20 03:05:03;;;;;;;7.40;6.80;;;;;;;15.26;86.94;99734.47;4958579;28;20219;-81
2022/06/20 03:07:36;;;;;;;7.60;6.93;;;;;;;14.94;88.22;99741.31;4958387;28;20327;-80
2022/06/20 03:10:15;;;;;;;7.37;6.77;;;;;;;15.14;87.95;99737.72;4959031;28;20309;-81
2022/06/20 03:12:42;;;;;;;8.20;7.60;;;;;;;14.77;88.67;99750.88;4958660;28;20237;-81
2022/06/20 03:15:09;;;;;;;9.50;8.70;;;;;;;14.32;91.40;99714.44;4958529;28;20216;-81
2022/06/20 03:17:37;;;;;;;10.37;9.53;;;;;;;14.10;93.77;99671.66;4958324;28;20697;-80
2022/06/20 03:20:09;;;;;;;10.63;9.70;;;;;;;14.14;94.35;99669.75;4958367;28;20231;-80
2022/06/20 03:22:39;;;;;;;10.93;9.03;;;;;;;14.19;94.21;99682.66;4958343;28;20214;-80
2022/06/20 03:25:10;;;;;;;10.63;9.73;;;;;;;14.23;94.49;99723.56;4958389;28;20238;-80
2022/06/20 03:27:38;;;;;;;10.47;9.57;;;;;;;14.04;95.33;99750.66;4958098;28;20264;-81
2022/06/20 03:30:20;;;;;;;9.20;8.50;;;;;;;13.67;97.48;99746.16;4957997;28;20225;-80
2022/06/20 03:32:48;;;;;;;13.50;9.80;;;;;;;13.77;98.75;99715.13;4958616;28;20212;-81
2022/06/20 03:35:15;;;;;;;7.93;5.87;;;;;;;13.76;97.03;99743.16;4958467;28;20205;-81
2022/06/20 03:37:42;;;;;;;6.83;6.20;;;;;;;13.47;97.01;99775.84;4958086;28;20240;-80
2022/06/20 03:40:10;;;;;;;6.83;5.37;;;;;;;13.52;98.26;99800.13;4958410;28;20723;-80
2022/06/20 03:42:36;;;;;;;7.43;5.90;;;;;;;13.55;98.03;99830.59;4958611;28;20263;-80
2022/06/20 03:45:05;;;;;;;8.50;6.37;;;;;;;13.21;99.54;99851.13;4958221;28;20638;-80
2022/06/20 03:47:35;;;;;;;7.97;7.07;;;;;;;13.25;100.00;99850.09;4958549;28;20228;-80
2022/06/20 03:50:08;;;;;;;8.50;7.80;;;;;;;13.18;100.00;99859.13;4958353;28;20782;-80
2022/06/20 03:52:40;;;;;;;8.60;7.77;;;;;;;13.01;100.00;99877.25;4957882;28;20270;-80
2022/06/20 03:55:12;;;;;;;9.57;8.87;;;;;;;13.08;100.00;99878.69;4958824;28;20219;-80
2022/06/20 03:57:46;;;;;;;10.10;8.17;;;;;;;12.97;100.00;99880.91;4958293;28;20734;-80
2022/06/20 04:00:16;;;;;;;9.67;8.77;;;;;;;12.96;100.00;99889.66;4958610;28;20253;-81
2022/06/20 04:02:47;;;;;;;11.50;9.40;;;;;;;13.28;100.00;99898.94;4958558;28;20209;-81
2022/06/20 04:05:22;;;;;;;8.57;7.63;;;;;;;13.50;100.00;99907.69;4957840;28;20206;-81
2022/06/20 04:07:56;;;;;;;7.67;7.07;;;;;;;13.73;100.00;99905.91;4958698;28;20228;-81
2022/06/20 04:13:19;;;;;;;8.70;6.47;;;;;;;14.18;100.00;99931.16;4959229;29;20280;-82
2022/06/20 04:15:53;;;;;;;6.47;5.87;;;;;;;14.36;98.70;99954.94;4959355;28;20897;-81
2022/06/20 04:18:27;;;;;;;6.07;5.57;;;;;;;14.46;97.29;99951.84;4959745;28;20236;-81
2022/06/20 04:21:02;;;;;;;7.50;5.60;;;;;;;14.59;96.39;99969.72;4959883;28;20298;-80
2022/06/20 04:23:35;;;;;;;6.77;6.10;;;;;;;14.65;94.79;99993.97;4957704;28;20210;-80
2022/06/20 04:26:08;;;;;;;5.63;5.13;;;;;;;14.75;94.05;99990.97;4958933;28;20222;-80
2022/06/20 04:28:39;;;;;;;6.83;5.77;;;;;;;14.80;92.35;100018.72;4961347;28;20231;-79
2022/06/20 04:31:13;;;;;;;6.13;5.37;;;;;;;14.82;91.78;100016.03;4961212;28;20267;-80
2022/06/20 04:33:45;;;;;;;5.17;4.77;;;;;;;14.78;91.55;100010.03;4961380;28;20268;-80
2022/06/20 04:36:22;;;;;;;5.57;4.77;;;;;;;14.74;90.89;100008.47;4960455;28;20240;-80
2022/06/20 04:38:54;;;;;;;8.27;3.97;;;;;;;14.74;90.43;100005.84;4960400;28;20242;-80
2022/06/20 04:41:27;;;;;;;5.10;4.10;;;;;;;14.73;90.00;99988.41;4960791;28;20216;-81
2022/06/20 04:43:59;;;;;;;5.63;3.87;;;;;;;14.74;91.00;99942.78;4960697;28;20208;-81
2022/06/20 04:46:31;;;;;;;5.07;4.57;;;;;;;14.81;90.74;99933.72;4961161;28;20289;-81
2022/06/20 04:48:59;;;;;;;4.40;3.97;;;;;;;14.81;89.60;99936.34;4960733;28;20241;-80
2022/06/20 04:51:33;;;;;;;5.90;3.97;;;;;;;14.82;88.59;99932.78;4960742;28;20313;-82
2022/06/20 04:54:00;;;;;;;4.77;3.90;;;;;;;14.81;89.28;99912.72;4960762;28;20201;-81
2022/06/20 04:56:27;;;;;;;4.40;3.30;;;;;;;14.82;88.76;99897.78;4961187;28;20230;-81
2022/06/20 04:58:58;;;;;;;3.90;3.30;;;;;;;14.80;88.34;99895.22;4960687;28;20308;-81
2022/06/20 05:01:25;;;;;;;8.77;4.17;;;;;;;14.72;89.00;99893.88;4960996;28;20205;-80
2022/06/20 05:03:57;;;;;;;3.60;3.30;;;;;;;14.73;87.62;99920.09;4961175;28;20215;-81
2022/06/20 05:06:29;;;;;;;5.23;3.90;;;;;;;14.68;87.56;99928.16;4960601;28;20241;-81
2022/06/20 05:09:04;;;;;;;3.53;3.23;;;;;;;14.64;88.24;99894.22;4960026;28;20301;-82
2022/06/20 05:11:36;;;;;;;4.97;3.30;;;;;;;14.58;89.55;99855.94;4961310;28;20217;-81
2022/06/20 05:14:08;;;;;;;4.17;3.30;;;;;;;14.64;90.05;99845.16;4961196;28;20276;-81
2022/06/20 05:16:38;;;;;;;4.03;3.40;;;;;;;14.57;89.78;99869.13;4961065;28;20239;-81
2022/06/20 05:19:09;;;;;;;4.37;3.23;;;;;;;14.59;91.00;99859.41;4960895;28;20229;-81
2022/06/20 05:21:41;;;;;;;4.37;3.30;;;;;;;14.18;90.37;99899.66;4964922;28;20209;-80
2022/06/20 05:24:13;;;;;;;4.90;3.20;;;;;;;14.32;90.84;99922.69;4964009;28;20234;-81
2022/06/20 05:26:43;;;;;;;5.97;3.10;;;;;;;14.10;89.94;99970.00;4963961;28;20268;-85
2022/06/20 05:29:16;;;;;;;3.27;3.07;;;;;;;14.27;92.08;99964.03;4967362;28;20728;-84
2022/06/20 05:31:45;;;;;;;4.97;3.50;;;;;;;14.27;92.09;99941.28;4971462;28;20655;-85
2022/06/20 05:34:18;;;;;;;7.17;3.70;;;;;;;14.28;91.18;99969.22;4975765;28;20208;-83
2022/06/20 05:36:54;;;;;;;8.03;3.30;;;;;;;14.46;91.01;99948.38;4980017;28;20236;-84
2022/06/20 05:39:25;;;;;;;8.00;7.30;;;;;;;14.05;90.63;99980.69;4980268;28;20231;-82
2022/06/20 05:41:52;;;;;;;7.03;6.33;;;;;;;14.32;91.67;99954.22;4979321;28;20206;-83
2022/06/20 05:44:19;;;;;;;8.03;7.33;;;;;;;14.49;91.09;99972.72;4980633;28;20212;-82
2022/06/20 05:46:50;;;;;;;9.20;5.87;;;;;;;14.59;91.34;99988.09;4971515;28;20221;-81
2022/06/20 05:49:25;;;;;;;6.47;5.37;;;;;;;14.60;89.17;100034.47;4967063;28;20225;-80
2022/06/20 05:51:55;;;;;;;6.50;5.67;;;;;;;14.76;90.40;100026.81;4967391;28;20203;-81
2022/06/20 05:54:25;;;;;;;6.70;5.73;;;;;;;14.83;89.41;100049.28;4965505;28;20723;-82
2022/06/20 05:56:56;;;;;;;6.30;5.70;;;;;;;14.93;89.25;100047.13;4965816;28;20200;-81
2022/06/20 05:59:37;;;;;;;6.30;5.70;;;;;;;15.00;87.62;100090.59;4964188;28;20230;-80
2022/06/20 06:02:18;;;;;;;5.93;5.43;;;;;;;14.91;86.55;100140.94;4964977;28;20202;-79
2022/06/20 06:04:51;;;;;;;5.23;4.77;;;;;;;14.69;87.09;100155.81;4966238;28;20201;-81
2022/06/20 06:07:23;;;;;;;5.37;4.83;;;;;;;14.70;87.95;100154.88;4966737;28;20224;-82
2022/06/20 06:09:55;;;;;;;8.90;4.10;;;;;;;14.49;88.12;100140.81;4966620;28;20221;-81
2022/06/20 06:12:31;;;;;;;6.07;2.77;;;;;;;14.25;87.23;100168.03;4964455;28;20224;-80
2022/06/20 06:15:04;;;;;;;5.67;2.90;;;;;;;14.14;88.06;100152.69;4967567;28;20273;-83
2022/06/20 06:17:38;;;;;;;4.40;2.77;;;;;;;14.21;89.29;100133.19;4967289;28;20255;-82
2022/06/20 06:20:11;;;;;;;6.33;2.80;;;;;;;14.22;89.49;100145.38;4968189;28;20298;-83
2022/06/20 06:22:43;;;;;;;3.97;3.50;;;;;;;13.81;92.44;100100.56;4967332;28;20232;-81
2022/06/20 06:25:20;;;;;;;7.37;3.23;;;;;;;13.32;94.05;100052.59;4962102;28;20205;-81
2022/06/20 06:27:48;;;;;;;6.00;3.97;;;;;;;13.25;96.20;100019.59;4965389;28;20227;-80
2022/06/20 06:30:20;;;;;;;6.37;3.20;;;;;;;13.46;96.03;100021.47;4965288;28;20224;-84
2022/06/20 06:32:52;;;;;;;3.57;3.23;;;;;;;13.47;95.38;100027.56;4969175;28;20731;-82
2022/06/20 06:35:24;;;;;;;7.20;3.67;;;;;;;13.26;96.08;100029.16;4967512;28;20204;-82
2022/06/20 06:37:59;;;;;;;6.73;3.40;;;;;;;13.18;96.66;100024.22;4966443;28;20200;-83
2022/06/20 06:40:33;;;;;;;6.03;4.87;;;;;;;13.02;98.26;100017.81;4968626;28;20306;-82
2022/06/20 06:43:00;;;;;;;9.20;6.80;;;;;;;13.17;99.99;99991.06;4969407;28;20203;-81
2022/06/20 06:45:31;;;;;;;8.20;7.20;;;;;;;13.17;100.00;99987.59;4969673;28;20274;-83
2022/06/20 06:48:02;;;;;;;8.83;5.53;;;;;;;13.03;100.00;99990.72;4966837;28;20220;-80
2022/06/20 06:50:34;;;;;;;9.10;4.77;;;;;;;13.29;100.00;99993.25;4963100;28;20270;-80
2022/06/20 06:53:11;;;;;;;4.67;3.50;;;;;;;13.19;99.57;100001.47;4966422;28;20208;-81
2022/06/20 06:55:41;;;;;;;3.77;3.27;;;;;;;13.09;99.62;99995.72;4960824;28;20259;-79
2022/06/20 06:58:16;;;;;;;4.47;2.73;;;;;;;12.87;99.33;100009.59;4957156;28;20200;-80
2022/06/20 07:00:47;;;;;;;3.87;3.43;;;;;;;12.88;99.56;100005.19;4957537;28;20203;-81
2022/06/20 07:03:18;;;;;;;5.07;3.23;;;;;;;12.72;100.00;99989.16;4965568;28;20196;-81
2022/06/20 07:05:51;;;;;;;4.77;3.37;;;;;;;12.80;100.00;99979.28;4966190;28;20204;-79
2022/06/20 07:08:23;;;;;;;6.03;4.20;;;;;;;12.99;100.00;99962.91;4965526;28;20773;-83
2022/06/20 07:10:55;;;;;;;5.73;3.73;;;;;;;12.81;100.00;99961.81;4963196;28;20204;-82
2022/06/20 07:13:28;;;;;;;5.40;3.70;;;;;;;13.02;100.00;99958.41;4966108;28;20206;-81
2022/06/20 07:15:58;;;;;;;5.13;3.10;;;;;;;13.05;100.00;99968.78;4964354;28;20746;-83
2022/06/20 07:18:41;;;;;;;5.80;3.33;;;;;;;13.09;100.00;99959.03;4965428;28;20201;-83
2022/06/20 07:21:11;;;;;;;5.10;3.43;;;;;;;12.93;99.91;99969.22;4965841;28;20232;-80
2022/06/20 07:23:41;;;;;;;10.47;2.73;;;;;;;12.84;99.67;99978.28;4966568;28;20206;-81
2022/06/20 07:26:21;;;;;;;6.53;3.03;;;;;;;12.67;99.56;99981.47;4969970;28;20211;-82
2022/06/20 07:28:53;;;;;;;5.60;2.30;;;;;;;12.81;99.77;99970.53;4967639;28;20671;-82
2022/06/20 07:31:24;;;;;;;5.15;2.75;;;;;;;12.68;99.41;99985.78;4964379;28;20501;-82
2022/06/20 07:33:54;;;;;;;3.23;2.47;;;;;;;12.77;100.00;99968.06;4965253;28;20212;-82
2022/06/20 07:36:26;;;;;;;5.87;3.00;;;;;;;13.00;100.00;99960.25;4966323;28;20211;-82
2022/06/20 07:39:00;;;;;;;5.53;3.17;;;;;;;12.94;99.68;99978.78;4965933;28;20278;-82
2022/06/20 07:41:33;;;;;;;7.60;3.00;;;;;;;12.94;99.72;99997.13;4963946;28;20263;-81
2022/06/20 07:44:45;;;;;;;5.07;2.77;;;;;;;13.17;99.56;99996.28;4969649;28;20270;-83
2022/06/20 07:50:42;;;;;;;3.97;2.20;;;;;;;13.69;98.15;100041.53;4976137;23;20275;-79
2022/06/20 07:53:13;;;;;;;6.13;2.77;;;;;;;13.34;97.34;100066.50;4981844;28;20236;-78
2022/06/20 07:55:45;;;;;;;4.20;2.40;;;;;;;13.33;97.77;100066.53;4979624;28;20204;-78
2022/06/20 07:58:16;;;;;;;4.87;3.27;;;;;;;12.97;98.15;100062.50;4959721;29;20609;-78
2022/06/20 08:00:46;;;;;;;6.97;3.00;;;;;;;13.10;98.28;100044.59;4967313;28;20196;-77
2022/06/20 08:03:18;;;;;;;4.93;2.93;;;;;;;13.08;98.63;100033.31;4968254;28;20754;-78
2022/06/20 08:05:49;;;;;;;6.40;2.57;;;;;;;13.21;97.43;100044.22;4966576;28;20228;-78
2022/06/20 08:08:22;;;;;;;5.37;2.60;;;;;;;13.36;97.04;100059.44;4964832;28;20213;-77
2022/06/20 08:10:56;;;;;;;7.73;2.93;;;;;;;13.18;97.35;100071.41;4956099;29;20197;-77
2022/06/20 08:13:30;;;;;;;7.17;2.97;;;;;;;13.22;97.76;100066.88;4958773;28;20251;-77
2022/06/20 08:16:00;;;;;;;5.60;2.40;;;;;;;13.13;97.66;100068.06;4958372;28;20207;-77
2022/06/20 08:18:28;;;;;;;6.27;3.10;;;;;;;13.29;98.49;100071.00;4954812;29;20201;-76
2022/06/20 08:21:06;;;;;;;8.00;3.13;;;;;;;13.05;97.49;100085.84;4956965;28;20262;-77
2022/06/20 08:23:37;;;;;;;3.97;2.50;;;;;;;13.27;97.41;100083.31;4950255;29;20828;-77
2022/06/20 08:26:12;;;;;;;5.63;2.63;;;;;;;13.51;97.25;100086.84;4959973;28;20295;-79
2022/06/20 08:28:45;;;;;;;4.60;2.93;;;;;;;13.33;97.20;100106.72;4964855;28;20223;-83
2022/06/20 08:31:20;;;;;;;6.70;2.67;;;;;;;13.40;97.50;100105.59;4960651;28;20197;-82
2022/06/20 08:33:52;;;;;;;6.50;3.35;;;;;;;13.38;96.27;100114.41;4954147;29;21120;-82
2022/06/20 08:36:23;;;;;;;5.93;3.60;;;;;;;13.31;96.23;100126.88;4957030;28;20283;-84
2022/06/20 08:38:56;;;;;;;6.28;3.47;;;;;;;13.51;95.78;100132.25;4949029;29;20813;-80
2022/06/20 08:41:54;;;;;;;6.23;2.87;;;;;;;13.55;95.13;100148.75;4950795;29;20201;-81
2022/06/20 08:44:58;;;;;;;6.07;2.93;;;;;;;13.50;95.99;100141.06;4954516;28;20743;-80
2022/06/20 08:47:52;;;;;;;11.97;3.73;;;;;;;13.46;95.30;100151.72;4962075;29;20232;-80
2022/06/20 08:50:41;;;;;;;5.20;3.17;;;;;;;13.50;93.77;100190.03;4963007;29;20207;-84
2022/06/20 08:53:48;;;;;;;7.20;3.63;;;;;;;13.20;93.07;100225.97;4967061;28;20205;-82
2022/06/20 08:56:27;;;;;;;5.83;3.23;;;;;;;13.18;92.37;100223.41;4957725;28;20223;-81
2022/06/20 08:59:05;;;;;;;7.37;3.27;;;;;;;13.21;92.52;100238.16;4965946;29;20208;-83
2022/06/20 09:01:39;;;;;;;8.33;3.57;;;;;;;13.57;93.87;100214.25;4962024;29;20667;-84
2022/06/20 09:04:52;;;;;;;9.20;3.33;;;;;;;13.78;91.21;100259.88;4962625;29;20205;-83
2022/06/20 09:07:48;;;;;;;7.83;3.43;;;;;;;13.67;90.44;100284.69;4966346;29;20675;-83
2022/06/20 09:10:30;;;;;;;6.57;3.57;;;;;;;13.54;90.11;100286.03;4941435;29;20198;-83
2022/06/20 09:13:18;;;;;;;6.30;3.70;;;;;;;13.43;90.30;100286.38;4961002;29;20216;-83
2022/06/20 09:15:52;;;;;;;7.10;3.50;;;;;;;13.53;91.02;100281.69;4967476;28;20193;-83
2022/06/20 09:18:34;;;;;;;4.63;3.00;;;;;;;13.60;89.35;100290.22;4967709;28;20204;-83
2022/06/20 09:21:12;;;;;;;6.23;3.43;;;;;;;13.68;91.62;100269.84;4963796;29;20206;-84
2022/06/20 09:23:56;;;;;;;7.57;3.43;;;;;;;14.03;92.08;100230.97;4966394;28;20232;-83
2022/06/20 09:26:29;;;;;;;6.80;4.40;;;;;;;14.18;89.75;100268.94;4962528;29;20221;-84
2022/06/20 09:29:23;;;;;;;5.57;3.03;;;;;;;14.13;88.07;100326.00;4967316;28;20225;-83
2022/06/20 09:32:08;;;;;;;7.07;3.37;;;;;;;14.16;87.14;100336.41;4964114;29;20205;-84
2022/06/20 09:34:54;;;;;;;7.00;3.30;;;;;;;14.16;87.26;100347.75;4964855;29;20263;-84
2022/06/20 09:37:37;;;;;;;5.30;3.60;;;;;;;14.47;88.98;100302.00;4949347;29;20229;-84
2022/06/20 09:40:16;;;;;;;7.43;3.20;;;;;;;14.52;86.21;100343.84;4965865;29;20623;-84
2022/06/20 09:42:49;;;;;;;5.03;3.03;;;;;;;14.41;87.07;100339.84;4967623;28;20200;-85
2022/06/20 09:45:26;;;;;;;8.97;3.67;;;;;;;14.45;87.60;100351.97;4962419;28;20204;-81
2022/06/20 09:48:06;;;;;;;8.53;4.80;;;;;;;14.53;87.65;100337.66;4959447;28;20327;-82
2022/06/20 09:50:47;;;;;;;6.50;4.00;;;;;;;14.56;87.76;100342.81;4959467;28;20216;-81
2022/06/20 09:53:26;;;;;;;5.40;3.70;;;;;;;14.47;84.37;100421.03;4950697;29;20579;-81
2022/06/20 09:56:00;;;;;;;6.23;3.33;;;;;;;14.43;84.51;100424.69;4955326;29;20671;-82
2022/06/20 09:58:35;;;;;;;9.30;4.10;;;;;;;14.60;87.03;100382.09;4957552;29;20252;-84
2022/06/20 10:01:10;;;;;;;7.03;3.00;;;;;;;14.60;84.55;100421.47;4956088;29;20231;-83
2022/06/20 10:03:46;;;;;;;4.20;3.33;;;;;;;14.92;84.15;100415.97;4959495;29;20228;-83
2022/06/20 10:06:23;;;;;;;5.87;2.70;;;;;;;14.82;81.54;100476.75;4957654;29;20318;-82
2022/06/20 10:09:00;;;;;;;5.33;3.10;;;;;;;15.03;81.77;100505.81;4954297;29;20221;-83
2022/06/20 10:11:34;;;;;;;5.70;3.10;;;;;;;15.13;82.78;100491.41;4962644;29;20666;-82
2022/06/20 10:14:09;;;;;;;5.20;2.83;;;;;;;15.54;83.48;100469.69;4965589;28;20266;-81
2022/06/20 10:16:42;;;;;;;4.80;2.80;;;;;;;15.87;79.92;100523.66;4963329;28;20232;-82
2022/06/20 10:19:18;;;;;;;5.17;2.87;;;;;;;15.98;77.54;100601.41;4960390;29;20263;-83
2022/06/20 10:21:56;;;;;;;4.10;2.30;;;;;;;16.00;76.01;100692.56;4964702;28;20610;-82
2022/06/20 10:25:05;;;;;;;5.03;2.63;;;;;;;16.13;76.51;100690.31;4962507;28;20206;-81
2022/06/20 10:27:44;;;;;;;4.50;2.23;;;;;;;16.03;75.10;100699.50;4958224;29;20591;-85
2022/06/20 10:30:13;;;;;;;2.53;2.17;;;;;;;16.13;75.20;100702.63;4958976;29;20237;-83
2022/06/20 10:32:58;;;;;;;5.37;2.70;;;;;;;15.82;76.28;100680.94;4959981;28;20205;-82
2022/06/20 10:35:45;;;;;;;3.90;2.10;;;;;;;15.94;76.19;100674.38;4963643;28;20237;-82
2022/06/20 10:38:25;;;;;;;4.00;2.20;;;;;;;16.08;75.61;100679.97;4962973;28;20196;-81
2022/06/20 10:41:03;;;;;;;4.97;2.20;;;;;;;16.16;72.45;100740.25;4956786;29;20197;-80
2022/06/20 10:43:42;;;;;;;3.23;1.93;;;;;;;16.33;70.77;100818.63;4962464;29;20197;-81
2022/06/20 10:46:40;;;;;;;2.73;2.20;;;;;;;16.16;69.84;100905.34;5091855;27;20549;-81
2022/06/20 10:49:20;;;;;;;3.47;2.10;;;;;;;16.28;69.60;100911.03;5087370;28;20312;-79
2022/06/20 10:51:57;;;;;;;3.93;2.20;;;;;;;16.53;68.66;100917.19;5089584;28;20211;-79
2022/06/20 10:54:42;;;;;;;2.97;1.97;;;;;;;16.57;68.80;100888.06;5094663;28;20236;-80
2022/06/20 10:57:18;;;;;;;2.90;1.70;;;;;;;16.62;68.12;100914.22;5089435;28;20212;-78
2022/06/20 10:59:55;;;;;;;4.10;2.00;;;;;;;16.52;69.66;100921.59;5083239;28;20243;-78
2022/06/20 11:02:34;;;;;;;3.87;2.60;;;;;;;16.23;69.27;100897.19;5083558;28;20206;-79
2022/06/20 11:05:08;;;;;;;3.87;2.00;;;;;;;16.08;70.26;100842.41;5079663;28;20283;-79
2022/06/20 11:07:43;;;;;;;4.47;2.40;;;;;;;16.09;71.31;100794.06;5084183;28;20209;-79
2022/06/20 11:10:26;;;;;;;5.10;2.40;;;;;;;16.29;71.77;100780.16;5081573;28;20216;-79
2022/06/20 11:13:01;;;;;;;3.30;1.93;;;;;;;16.47;69.85;100768.06;5078005;28;20198;-77
2022/06/20 11:15:39;;;;;;;3.67;2.10;;;;;;;16.67;68.97;100841.97;5076400;28;20252;-77
2022/06/20 11:18:25;;;;;;;3.37;1.80;;;;;;;16.73;68.40;100864.63;5078867;28;20206;-77
2022/06/20 11:20:59;;;;;;;2.57;1.87;;;;;;;16.90;67.19;100887.72;5076912;28;20217;-77
2022/06/20 11:23:35;;;;;;;3.77;1.80;;;;;;;17.11;67.44;100912.44;5077417;28;20205;-77
2022/06/20 11:26:09;;;;;;;4.13;2.07;;;;;;;17.42;65.29;100946.41;5078806;28;20226;-77
2022/06/20 11:28:50;;;;;;;2.60;2.00;;;;;;;17.63;64.25;101000.13;5077734;28;20632;-78
2022/06/20 11:31:29;;;;;;;2.00;1.77;;;;;;;18.11;65.70;100942.75;5079708;28;20202;-78
2022/06/20 11:34:16;;;;;;;3.63;1.87;;;;;;;18.12;62.25;100992.03;5080260;28;20254;-79
2022/06/20 11:37:11;;;;;;;3.10;1.80;;;;;;;17.76;61.27;101085.00;5079720;28;20201;-78
2022/06/20 11:40:00;;;;;;;2.80;1.97;;;;;;;17.50;63.19;101064.00;5078094;28;20269;-77
2022/06/20 11:43:08;;;;;;;3.57;1.87;;;;;;;17.42;62.15;101022.94;5077180;28;20206;-78
2022/06/20 11:45:46;;;;;;;6.10;1.70;;;;;;;18.05;60.18;101068.03;5080153;28;20212;-79
2022/06/20 11:48:24;;;;;;;3.43;1.93;;;;;;;18.18;58.20;101086.06;5078449;28;20207;-78
2022/06/20 11:50:57;;;;;;;1.97;1.67;;;;;;;18.59;57.58;101125.78;5078422;28;20642;-78
2022/06/20 11:53:38;;;;;;;3.57;1.70;;;;;;;18.22;55.61;101209.22;5080448;28;20223;-79
2022/06/20 11:56:13;;;;;;;2.37;1.57;;;;;;;18.13;55.55;101228.06;5075666;28;20203;-78
2022/06/20 11:59:02;;;;;;;2.47;1.43;;;;;;;18.32;55.40;101257.31;5064031;28;20250;-78
2022/06/20 12:01:37;;;;;;;1.70;1.50;;;;;;;19.41;53.05;101174.34;5065155;28;20296;-79
2022/06/20 12:04:14;;;;;;;2.57;1.57;;;;;;;20.26;49.13;101279.22;5066483;28;20196;-80
2022/06/20 12:06:48;;;;;;;2.33;1.37;;;;;;;20.15;49.91;101388.38;5068265;28;20219;-79
2022/06/20 12:09:20;;;;;;;2.73;1.60;;;;;;;19.82;49.94;101373.03;5058565;28;20221;-80
2022/06/20 12:12:00;;;;;;;2.47;1.80;;;;;;;18.64;52.24;101365.31;5055765;28;20224;-78
2022/06/20 12:14:36;;;;;;;3.63;1.80;;;;;;;19.01;50.84;101266.03;5054469;28;20280;-79